Time;durP1;ratioP1;P1;durP2;ratioP2;P2;SDS_P1;SDS_P2;PMS_P1;PMS_P2;Temp;Humidity;BMP_temperature;BMP_pressure;BME280_temperature;BME280_humidity;BME280_pressure;Samples;Min_cycle;Max_cycle;Signal;HPM_P1;HPM_P2
2022/03/16 04:32:32;;;;;;;;;;;;;;;3.48;100.00;100296.41;5200565;23;19933;-82
2022/03/16 04:34:57;;;;;;;;;;;;;;;3.55;100.00;100291.97;5014077;28;19921;-82
2022/03/16 04:37:22;;;;;;;;;;;;;;;3.44;100.00;100290.28;5014198;28;20340;-80
2022/03/16 04:39:47;;;;;;;;;;;;;;;3.43;99.89;100290.28;5014041;28;19918;-80
2022/03/16 04:42:13;;;;;;;;;;;;;;;3.47;99.70;100299.03;5013988;28;19921;-81
2022/03/16 04:44:38;;;;;;;;;;;;;;;3.30;99.33;100297.34;5014272;28;20007;-80
2022/03/16 04:47:03;;;;;;;;;;;;;;;3.39;99.36;100297.31;5011567;28;19933;-81
2022/03/16 04:49:29;;;;;;;;;;;;;;;3.40;98.62;100288.56;5012387;28;20011;-82
2022/03/16 04:51:54;;;;;;;;;;;;;;;3.40;97.88;100280.72;5014045;28;19932;-82
2022/03/16 04:54:19;;;;;;;;;;;;;;;3.25;97.76;100291.25;5013970;28;19961;-83
2022/03/16 04:56:44;;;;;;;;;;;;;;;3.38;97.63;100290.34;5013973;28;19921;-83
2022/03/16 04:59:10;;;;;;;;;;;;;;;3.35;98.87;100282.50;5012661;28;19917;-83
2022/03/16 05:01:35;;;;;;;;;;;;;;;3.52;99.37;100284.13;5011280;28;20363;-83
2022/03/16 05:04:00;;;;;;;;;;;;;;;3.48;98.98;100295.50;5013687;28;19918;-84
2022/03/16 05:06:25;;;;;;;;;;;;;;;3.31;99.45;100293.84;5013313;28;19926;-84
2022/03/16 05:08:51;;;;;;;;;;;;;;;3.30;99.35;100299.97;5012992;28;20000;-84
2022/03/16 05:11:17;;;;;;;;;;;;;;;3.37;99.06;100296.44;5012460;28;19918;-84
2022/03/16 05:13:43;;;;;;;;;;;;;;;3.33;98.98;100299.94;5013364;28;19972;-84
2022/03/16 05:16:08;;;;;;;;;;;;;;;3.27;98.96;100285.16;5010991;28;19921;-84
2022/03/16 05:18:34;;;;;;;;;;;;;;;3.28;99.08;100288.63;5013594;28;20110;-85
2022/03/16 05:20:59;;;;;;;;;;;;;;;3.24;98.79;100285.16;5013438;28;20449;-85
2022/03/16 05:23:25;;;;;;;;;;;;;;;3.21;98.60;100279.06;5013561;28;20335;-84
2022/03/16 05:25:50;;;;;;;;;;;;;;;3.11;98.29;100286.06;5013118;28;19929;-85
2022/03/16 05:28:16;;;;;;;;;;;;;;;3.11;98.30;100275.59;5012453;28;20331;-84
2022/03/16 08:39:10;;;;;;;;;;;;;;;2.80;82.32;100329.84;5373987;23;19926;-85
2022/03/16 08:41:35;;;;;;;;;;;;;;;2.83;82.41;100327.22;5002358;28;19922;-86
2022/03/16 08:44:02;;;;;;;;;;;;;;;2.81;82.25;100334.19;5004722;28;19917;-87
2022/03/16 08:46:30;;;;;;;;;;;;;;;2.86;82.26;100337.69;4986408;28;20265;-87
2022/03/16 08:48:55;;;;;;;;;;;;;;;2.84;82.26;100331.56;4986254;28;19926;-86
2022/03/16 08:51:20;;;;;;;;;;;;;;;2.87;82.59;100336.78;4981103;28;19917;-86
2022/03/16 08:53:45;;;;;;;;;;;;;;;2.88;82.27;100338.53;4985581;28;19924;-86
2022/03/16 08:56:11;;;;;;;;;;;;;;;2.91;82.38;100341.16;4985748;28;20005;-88
2022/03/16 08:58:36;;;;;;;;;;;;;;;2.91;82.48;100330.69;4986700;28;19924;-87
2022/03/16 09:01:02;;;;;;;;;;;;;;;2.94;83.05;100328.06;4986272;28;19929;-87
2022/03/16 09:03:27;;;;;;;;;;;;;;;2.91;83.16;100326.31;5003895;28;19918;-86
2022/03/16 09:05:52;;;;;;;;;;;;;;;2.90;82.59;100323.69;4986276;28;20348;-87
2022/03/16 09:08:18;;;;;;;;;;;;;;;2.88;81.75;100328.06;4985225;28;20013;-87
2022/03/16 09:10:44;;;;;;;;;;;;;;;2.87;81.52;100329.81;4986811;28;19960;-87
2022/03/16 09:13:09;;;;;;;;;;;;;;;2.89;81.15;100330.69;4986387;28;19968;-89
2022/03/16 09:15:34;;;;;;;;;;;;;;;2.91;80.78;100317.59;4986537;28;20540;-88
2022/03/16 09:17:59;;;;;;;;;;;;;;;2.95;81.03;100319.31;4982817;28;19917;-88
2022/03/16 09:20:25;;;;;;;;;;;;;;;2.95;81.09;100323.69;5004576;28;20012;-87
2022/03/16 09:22:50;;;;;;;;;;;;;;;2.96;81.29;100318.44;5002425;28;19917;-84
2022/03/16 09:25:15;;;;;;;;;;;;;;;2.99;81.13;100328.03;5002281;28;19925;-85
2022/03/16 09:27:41;;;;;;;;;;;;;;;3.02;81.40;100325.41;4985173;28;19952;-84
2022/03/16 09:30:06;;;;;;;;;;;;;;;2.94;80.95;100314.97;4986205;28;19921;-84
2022/03/16 09:32:33;;;;;;;;;;;;;;;2.99;80.83;100314.94;4985303;28;20412;-85
2022/03/16 09:34:59;;;;;;;;;;;;;;;2.98;80.61;100332.38;4983739;28;20003;-84
2022/03/16 09:37:24;;;;;;;;;;;;;;;3.00;80.49;100335.88;4981572;28;20015;-83
2022/03/16 09:39:49;;;;;;;;;;;;;;;3.02;80.13;100328.91;4985261;28;19996;-84
2022/03/16 09:42:15;;;;;;;;;;;;;;;3.06;80.46;100324.50;4992368;28;19921;-84
2022/03/16 09:44:41;;;;;;;;;;;;;;;3.10;80.40;100323.63;5011580;28;20013;-83
2022/03/16 09:47:08;;;;;;;;;;;;;;;3.09;80.35;100316.66;4991132;28;19925;-84
2022/03/16 09:49:35;;;;;;;;;;;;;;;3.08;80.07;100315.78;5009297;28;19921;-84
2022/03/16 09:52:03;;;;;;;;;;;;;;;3.12;80.28;100321.00;4990176;28;19925;-84
2022/03/16 09:54:29;;;;;;;;;;;;;;;3.14;80.56;100317.50;5007538;28;19921;-84
2022/03/16 09:56:54;;;;;;;;;;;;;;;3.13;80.37;100310.53;4991928;28;19925;-85
2022/03/16 09:59:22;;;;;;;;;;;;;;;3.15;80.17;100324.47;4989616;28;20368;-83
2022/03/16 10:01:56;;;;;;;;;;;;;;;3.17;80.18;100316.63;4990677;28;19984;-85
2022/03/16 10:04:29;;;;;;;;;;;;;;;3.17;80.03;100314.00;5007573;28;20004;-84
2022/03/16 10:06:54;;;;;;;;;;;;;;;3.23;80.61;100320.06;4989690;28;19922;-84
2022/03/16 10:15:10;;;;;;;;;;;;;;;3.20;79.54;100312.22;5010634;28;19929;-84
2022/03/16 10:17:55;;;;;;;;;;;;;;;3.21;79.08;100307.88;4992558;28;19972;-84
2022/03/16 10:20:28;;;;;;;;;;;;;;;3.24;79.48;100305.25;4991117;28;19921;-83
2022/03/16 10:22:55;;;;;;;;;;;;;;;3.25;79.54;100292.13;5006966;28;20320;-83
2022/03/16 10:25:20;;;;;;;;;;;;;;;3.27;79.55;100292.13;4993368;28;20357;-83
2022/03/16 10:27:46;;;;;;;;;;;;;;;3.24;79.46;100298.25;4992823;28;19972;-84
2022/03/16 10:30:13;;;;;;;;;;;;;;;3.28;79.34;100301.72;4992071;28;19928;-83
2022/03/16 10:32:38;;;;;;;;;;;;;;;3.29;79.48;100300.84;4990858;28;19917;-83
2022/03/16 10:35:05;;;;;;;;;;;;;;;3.31;79.34;100309.56;4989044;28;19929;-83
2022/03/16 10:37:31;;;;;;;;;;;;;;;3.33;79.48;100309.56;5007596;28;19922;-83
2022/03/16 10:39:56;;;;;;;;;;;;;;;3.37;79.53;100316.53;5010125;28;19944;-83
2022/03/16 10:48:14;;;;;;;;;;;;;;;3.43;79.48;100303.38;5002591;28;20238;-84
2022/03/16 10:50:40;;;;;;;;;;;;;;;3.42;79.06;100297.28;4985266;28;20397;-84
2022/03/16 10:53:06;;;;;;;;;;;;;;;3.44;78.97;100295.53;5007195;28;20432;-83
2022/03/16 10:55:31;;;;;;;;;;;;;;;3.51;79.74;100298.09;4991067;28;20029;-85
2022/03/16 10:57:57;;;;;;;;;;;;;;;3.54;79.83;100298.09;4989057;28;19925;-86
2022/03/16 11:00:27;;;;;;;;;;;;;;;3.50;79.45;100292.00;4991311;28;20380;-83
2022/03/16 11:02:53;;;;;;;;;;;;;;;3.54;79.46;100285.00;5010100;28;19968;-82
2022/03/16 11:05:20;;;;;;;;;;;;;;;3.57;79.73;100290.22;4994283;28;19917;-85
2022/03/16 11:07:47;;;;;;;;;;;;;;;3.56;79.92;100288.50;4995369;28;20502;-86
2022/03/16 11:10:12;;;;;;;;;;;;;;;3.56;79.54;100284.13;5014994;28;20328;-83
2022/03/16 11:15:23;;;;;;;;;;;;;;;3.58;79.14;100286.72;5014022;28;19986;-81
2022/03/16 11:17:51;;;;;;;;;;;;;;;3.60;78.75;100285.81;4996017;28;20347;-84
2022/03/16 11:20:19;;;;;;;;;;;;;;;3.62;79.13;100280.56;4993662;28;19926;-82
2022/03/16 11:24:15;;;;;;;;;;;;;;;3.63;79.41;100279.69;4996080;28;19976;-83
2022/03/16 11:25:47;;;;;;;;;;;;;;;3.66;79.55;100276.19;5013160;28;20389;-85
2022/03/16 11:28:16;;;;;;;;;;;;;;;3.65;79.27;100275.31;5015214;28;19918;-81
2022/03/16 11:30:42;;;;;;;;;;;;;;;3.67;79.12;100270.06;5015152;28;19917;-82
2022/03/16 11:33:10;;;;;;;;;;;;;;;3.68;78.76;100266.56;4996288;28;20485;-87
2022/03/16 11:35:37;;;;;;;;;;;;;;;3.70;78.29;100259.56;4996070;28;19921;-84
2022/03/16 11:38:08;;;;;;;;;;;;;;;3.73;78.59;100251.66;5013586;28;20136;-82
2022/03/16 11:40:34;;;;;;;;;;;;;;;3.76;78.84;100247.25;4996068;28;20000;-81
2022/03/16 11:43:04;;;;;;;;;;;;;;;3.78;79.05;100242.00;4996400;28;19928;-85
2022/03/16 11:45:29;;;;;;;;;;;;;;;3.80;79.72;100235.88;4995308;28;19933;-84
2022/03/16 11:47:54;;;;;;;;;;;;;;;3.81;79.85;100242.00;4995190;28;20301;-84
2022/03/16 11:50:20;;;;;;;;;;;;;;;3.82;79.92;100239.34;5012121;28;19948;-83
2022/03/16 11:52:55;;;;;;;;;;;;;;;3.82;79.79;100244.59;5013017;28;19930;-85
2022/03/16 11:55:41;;;;;;;;;;;;;;;3.84;79.34;100241.09;5011413;28;19945;-84
2022/03/16 11:58:16;;;;;;;;;;;;;;;3.87;79.57;100239.31;5009970;28;19925;-84
2022/03/16 12:00:41;;;;;;;;;;;;;;;3.88;79.73;100238.44;4995652;28;19922;-83
2022/03/16 12:03:07;;;;;;;;;;;;;;;3.89;79.69;100234.06;5009394;28;19941;-85
2022/03/16 12:05:51;;;;;;;;;;;;;;;3.93;79.52;100230.56;4995194;28;19921;-85
2022/03/16 12:08:16;;;;;;;;;;;;;;;3.93;79.42;100225.31;4993576;28;19922;-83
2022/03/16 12:10:45;;;;;;;;;;;;;;;3.98;79.30;100223.50;4995320;28;19913;-84
2022/03/16 12:13:12;;;;;;;;;;;;;;;3.95;79.47;100210.41;4995242;28;20289;-83
2022/03/16 12:15:38;;;;;;;;;;;;;;;3.98;79.38;100216.50;4995240;28;20047;-86
2022/03/16 12:18:14;;;;;;;;;;;;;;;4.02;79.60;100203.34;5013856;28;20284;-83
2022/03/16 12:20:42;;;;;;;;;;;;;;;4.05;79.89;100198.94;5013834;28;19918;-84
2022/03/16 12:23:09;;;;;;;;;;;;;;;4.06;79.97;100203.31;5009241;28;19917;-83
2022/03/16 12:25:44;;;;;;;;;;;;;;;4.09;80.37;100197.19;4994431;28;20316;-82
2022/03/16 12:31:08;;;;;;;;;;;;;;;4.11;80.98;100188.41;5014075;28;19924;-85
2022/03/16 12:33:37;;;;;;;;;;;;;;;4.15;81.16;100190.13;4994858;28;20353;-85
2022/03/16 12:36:03;;;;;;;;;;;;;;;4.16;81.28;100190.97;5014048;28;19949;-82
2022/03/16 12:38:32;;;;;;;;;;;;;;;4.19;81.68;100180.47;5012665;28;20344;-83
2022/03/16 12:43:45;;;;;;;;;;;;;;;4.21;81.80;100165.56;5012436;28;20471;-83
2022/03/16 12:46:23;;;;;;;;;;;;;;;4.22;81.98;100169.94;4994402;28;19918;-82
2022/03/16 12:48:51;;;;;;;;;;;;;;;4.21;82.14;100162.94;4989946;28;20352;-83
2022/03/16 12:51:36;;;;;;;;;;;;;;;4.36;82.91;100156.69;5012356;28;19925;-83
2022/03/16 12:54:02;;;;;;;;;;;;;;;4.52;84.41;100152.97;4992688;28;19921;-84
2022/03/16 12:56:27;;;;;;;;;;;;;;;4.55;85.64;100144.22;4989628;28;19920;-83
2022/03/16 12:58:53;;;;;;;;;;;;;;;4.57;86.80;100145.03;4994585;28;20372;-82
2022/03/16 13:01:19;;;;;;;;;;;;;;;4.58;87.92;100148.53;5009897;28;20426;-85
2022/03/16 13:03:44;;;;;;;;;;;;;;;4.55;88.94;100145.06;4994757;28;19925;-83
2022/03/16 13:06:20;;;;;;;;;;;;;;;4.51;89.88;100148.59;4994904;28;20262;-82
2022/03/16 13:08:46;;;;;;;;;;;;;;;4.40;90.43;100137.38;4989239;28;19963;-82
2022/03/16 13:11:18;;;;;;;;;;;;;;;4.26;90.78;100139.28;4994609;28;19928;-82
2022/03/16 13:13:46;;;;;;;;;;;;;;;4.13;90.99;100139.44;4993894;28;19968;-84
2022/03/16 13:16:28;;;;;;;;;;;;;;;4.03;91.17;100143.03;4990964;28;19921;-84
2022/03/16 13:18:53;;;;;;;;;;;;;;;3.94;92.25;100145.75;5009040;28;20408;-82
2022/03/16 13:21:25;;;;;;;;;;;;;;;4.00;93.39;100133.47;5009466;28;19922;-84
2022/03/16 13:24:06;;;;;;;;;;;;;;;4.05;94.69;100138.63;4992517;28;19917;-84
2022/03/16 13:26:31;;;;;;;;;;;;;;;4.07;97.08;100134.25;4993534;28;19924;-83
2022/03/16 13:28:58;;;;;;;;;;;;;;;4.33;100.00;100140.97;4992703;28;19917;-84
2022/03/16 13:31:24;;;;;;;;;;;;;;;4.55;100.00;100131.94;4990098;28;19928;-83
2022/03/16 13:33:50;;;;;;;;;;;;;;;4.70;100.00;100136.13;5012805;28;19925;-84
2022/03/16 13:36:15;;;;;;;;;;;;;;;4.79;100.00;100124.63;4989567;28;19922;-83
2022/03/16 13:38:40;;;;;;;;;;;;;;;4.90;100.00;100127.13;4991227;28;19964;-83
2022/03/16 13:41:12;;;;;;;;;;;;;;;4.97;100.00;100127.88;5003049;28;19929;-83
2022/03/16 13:43:38;;;;;;;;;;;;;;;5.00;100.00;100122.59;4985201;28;20435;-84
2022/03/16 13:46:06;;;;;;;;;;;;;;;5.02;100.00;100124.28;4985849;28;19925;-82
2022/03/16 13:48:36;;;;;;;;;;;;;;;5.06;100.00;100120.75;4984985;28;19953;-83
2022/03/16 13:51:04;;;;;;;;;;;;;;;5.13;100.00;100118.88;5002888;28;19964;-83
2022/03/16 13:53:38;;;;;;;;;;;;;;;5.15;100.00;100114.47;4983855;28;19957;-83
2022/03/16 13:56:17;;;;;;;;;;;;;;;5.16;100.00;100108.34;4984504;28;20015;-84
2022/03/16 13:58:43;;;;;;;;;;;;;;;5.15;100.00;100101.34;5003323;28;20288;-83
2022/03/16 14:01:08;;;;;;;;;;;;;;;5.21;100.00;100105.63;4985611;28;19922;-84
2022/03/16 14:03:34;;;;;;;;;;;;;;;5.26;100.00;100107.31;5002655;28;19921;-84
2022/03/16 14:06:09;;;;;;;;;;;;;;;5.28;100.00;100096.75;4985135;28;20288;-85
2022/03/16 14:08:36;;;;;;;;;;;;;;;5.28;100.00;100097.63;4982887;28;19949;-84
2022/03/16 14:11:01;;;;;;;;;;;;;;;5.32;100.00;100094.97;4985123;28;19917;-84
2022/03/16 14:13:29;;;;;;;;;;;;;;;5.36;100.00;100094.88;4984964;28;19922;-82
2022/03/16 14:16:14;;;;;;;;;;;;;;;5.35;100.00;100100.16;5003237;28;20075;-83
2022/03/16 14:18:39;;;;;;;;;;;;;;;5.38;100.00;100092.25;4985264;28;19975;-85
2022/03/16 14:21:08;;;;;;;;;;;;;;;5.39;100.00;100096.56;5002473;28;19922;-84
2022/03/16 14:23:37;;;;;;;;;;;;;;;5.42;100.00;100086.00;4983631;28;19940;-83
2022/03/16 14:26:02;;;;;;;;;;;;;;;5.45;100.00;100083.34;4984979;28;20262;-84
2022/03/16 14:28:27;;;;;;;;;;;;;;;5.22;100.00;100073.22;4978515;28;19963;-84
2022/03/16 14:30:54;;;;;;;;;;;;;;;4.39;100.00;100072.69;5002525;28;20254;-84
2022/03/16 14:33:23;;;;;;;;;;;;;;;4.17;100.00;100075.56;4976799;28;19921;-84
2022/03/16 14:35:52;;;;;;;;;;;;;;;3.86;100.00;100082.03;4983530;28;20024;-84
2022/03/16 14:38:17;;;;;;;;;;;;;;;3.94;100.00;100067.09;4981369;28;20358;-84
2022/03/16 14:40:54;;;;;;;;;;;;;;;3.85;100.00;100072.44;4976672;28;20009;-84
2022/03/16 14:43:20;;;;;;;;;;;;;;;3.82;100.00;100074.19;4975424;28;20028;-85
2022/03/16 14:45:45;;;;;;;;;;;;;;;3.64;100.00;100062.16;4976760;28;20489;-84
2022/03/16 14:48:10;;;;;;;;;;;;;;;3.67;100.00;100055.16;4976637;28;20416;-84
2022/03/16 14:50:35;;;;;;;;;;;;;;;3.52;100.00;100046.56;4975442;28;19926;-84
2022/03/16 14:53:05;;;;;;;;;;;;;;;3.69;100.00;100043.78;4998659;28;19922;-84
2022/03/16 14:55:31;;;;;;;;;;;;;;;3.60;100.00;100044.72;4975799;28;19921;-84
2022/03/16 14:57:57;;;;;;;;;;;;;;;3.52;100.00;100040.47;4976642;28;19940;-84
2022/03/16 15:00:23;;;;;;;;;;;;;;;3.51;99.88;100044.84;5000796;28;20416;-83
2022/03/16 15:02:50;;;;;;;;;;;;;;;3.50;99.27;100039.63;4976879;28;19918;-84
2022/03/16 15:05:15;;;;;;;;;;;;;;;3.44;98.90;100044.00;4976115;28;20017;-85
2022/03/16 15:07:41;;;;;;;;;;;;;;;3.38;98.21;100043.19;4998881;28;20036;-84
2022/03/16 15:10:07;;;;;;;;;;;;;;;3.35;97.68;100035.38;5000320;28;20372;-84
2022/03/16 15:12:33;;;;;;;;;;;;;;;3.33;97.47;100051.09;4971858;28;19918;-83
2022/03/16 15:14:58;;;;;;;;;;;;;;;3.38;96.92;100048.44;4975750;28;19918;-84
2022/03/16 15:17:24;;;;;;;;;;;;;;;3.33;96.16;100055.47;5000066;28;19975;-84
2022/03/16 15:19:50;;;;;;;;;;;;;;;3.29;96.06;100046.78;4999062;28;19925;-84
2022/03/16 15:22:15;;;;;;;;;;;;;;;3.35;95.85;100040.59;5000073;28;19928;-84
2022/03/16 15:24:40;;;;;;;;;;;;;;;3.30;95.37;100051.13;4999637;28;20362;-83
2022/03/16 15:27:06;;;;;;;;;;;;;;;3.25;94.91;100040.69;4976115;28;19917;-82
2022/03/16 15:29:31;;;;;;;;;;;;;;;3.18;94.87;100033.78;4975695;28;19925;-84
2022/03/16 15:31:56;;;;;;;;;;;;;;;3.23;94.79;100045.06;5000448;28;19917;-84
2022/03/16 15:34:22;;;;;;;;;;;;;;;3.22;94.60;100045.09;4976915;28;20278;-85
2022/03/16 15:36:47;;;;;;;;;;;;;;;3.25;94.21;100030.22;4975727;28;19922;-84
2022/03/16 15:39:12;;;;;;;;;;;;;;;3.21;93.57;100040.75;4978520;28;20028;-83
2022/03/16 15:44:22;;;;;;;;;;;;;;;3.17;92.14;100034.66;5011912;28;19921;-83
2022/03/16 15:46:48;;;;;;;;;;;;;;;3.18;91.81;100027.69;4993236;28;19922;-82
2022/03/16 15:49:13;;;;;;;;;;;;;;;3.19;91.66;100034.63;5011529;28;19944;-83
2022/03/16 15:51:39;;;;;;;;;;;;;;;3.11;91.34;100036.47;5012309;28;19940;-83
2022/03/16 15:54:04;;;;;;;;;;;;;;;3.16;91.54;100032.03;4996019;28;19928;-83
2022/03/16 15:56:31;;;;;;;;;;;;;;;3.09;91.17;100029.50;4997045;28;19956;-82
2022/03/16 15:58:56;;;;;;;;;;;;;;;3.23;91.20;100031.97;4997217;28;19994;-84
2022/03/16 16:01:22;;;;;;;;;;;;;;;3.15;90.51;100027.72;4997035;28;19917;-83
2022/03/16 16:03:47;;;;;;;;;;;;;;;3.04;90.23;100033.03;4997037;28;19925;-84
2022/03/16 16:06:13;;;;;;;;;;;;;;;3.03;90.66;100023.44;4996892;28;19939;-83
2022/03/16 16:08:38;;;;;;;;;;;;;;;3.18;90.62;100025.06;4995639;28;19922;-84
2022/03/16 16:11:11;;;;;;;;;;;;;;;3.17;90.43;100028.56;5010180;28;19917;-84
2022/03/16 16:13:37;;;;;;;;;;;;;;;3.10;90.25;100027.75;4995110;28;19936;-84
2022/03/16 16:16:04;;;;;;;;;;;;;;;3.04;90.15;100022.56;5014805;28;19922;-83
2022/03/16 16:18:29;;;;;;;;;;;;;;;3.01;89.93;100028.69;4996703;28;19925;-83
2022/03/16 16:20:54;;;;;;;;;;;;;;;2.96;89.76;100035.69;5014781;28;20276;-84
2022/03/16 16:23:20;;;;;;;;;;;;;;;2.93;89.56;100045.34;4995597;28;20368;-84
2022/03/16 16:25:45;;;;;;;;;;;;;;;2.93;89.24;100038.34;4992112;28;20017;-83
2022/03/16 16:28:13;;;;;;;;;;;;;;;3.00;89.07;100036.53;4994931;28;19937;-83
2022/03/16 16:30:40;;;;;;;;;;;;;;;2.97;89.25;100036.56;5011799;28;19965;-84
2022/03/16 16:33:06;;;;;;;;;;;;;;;2.96;89.33;100040.09;4995544;28;19922;-84
2022/03/16 16:35:31;;;;;;;;;;;;;;;2.91;89.47;100034.88;4994393;28;19921;-84
2022/03/16 16:37:56;;;;;;;;;;;;;;;3.01;89.17;100027.81;5011486;28;20003;-85
2022/03/16 16:40:22;;;;;;;;;;;;;;;2.90;89.20;100027.91;4993014;28;19928;-82
2022/03/16 16:45:34;;;;;;;;;;;;;;;2.96;88.83;100016.53;5012790;28;19928;-83
2022/03/16 16:48:00;;;;;;;;;;;;;;;2.90;89.04;100006.94;5013277;28;19930;-83
2022/03/16 16:50:25;;;;;;;;;;;;;;;2.96;88.62;100004.28;4994528;28;19976;-83
2022/03/16 16:52:51;;;;;;;;;;;;;;;2.98;88.29;100006.91;5011669;28;20762;-83
2022/03/16 16:55:17;;;;;;;;;;;;;;;2.88;87.91;100006.09;5012585;28;20427;-85
2022/03/16 16:57:42;;;;;;;;;;;;;;;2.96;87.20;100014.75;4995158;28;19968;-84
2022/03/16 17:00:07;;;;;;;;;;;;;;;2.87;87.22;100020.94;5012327;28;20008;-84
2022/03/16 17:02:38;;;;;;;;;;;;;;;2.95;86.55;100020.88;5011570;28;19949;-84
2022/03/16 17:05:05;;;;;;;;;;;;;;;2.84;86.57;100020.97;5012412;28;19921;-84
2022/03/16 17:07:31;;;;;;;;;;;;;;;2.88;86.62;100024.44;4993976;28;19921;-84
2022/03/16 17:09:56;;;;;;;;;;;;;;;2.91;86.67;100034.88;5011703;28;20388;-83
2022/03/16 17:12:22;;;;;;;;;;;;;;;2.90;86.62;100030.50;4994545;28;20070;-83
2022/03/16 17:14:47;;;;;;;;;;;;;;;2.87;86.44;100027.91;5012732;28;20280;-84
2022/03/16 17:17:12;;;;;;;;;;;;;;;2.87;86.33;100036.66;5012397;28;19951;-84
2022/03/16 17:19:40;;;;;;;;;;;;;;;2.92;86.28;100036.63;5012271;28;19922;-83
2022/03/16 17:22:05;;;;;;;;;;;;;;;2.86;86.07;100040.16;4992851;28;20380;-81
2022/03/16 17:24:30;;;;;;;;;;;;;;;2.86;86.01;100034.91;5011059;28;19933;-83
2022/03/16 17:26:55;;;;;;;;;;;;;;;2.82;86.06;100034.94;5012551;28;20368;-84
2022/03/16 17:29:21;;;;;;;;;;;;;;;2.78;85.70;100030.63;5013029;28;19925;-84
2022/03/16 17:31:46;;;;;;;;;;;;;;;2.81;85.89;100038.44;4993702;28;19921;-84
2022/03/16 17:34:11;;;;;;;;;;;;;;;2.89;85.42;100039.25;5009721;28;20407;-84
2022/03/16 17:36:36;;;;;;;;;;;;;;;2.87;85.27;100041.00;4990105;28;19931;-84
2022/03/16 17:39:02;;;;;;;;;;;;;;;2.79;85.54;100041.06;4993474;28;19932;-85
2022/03/16 17:46:55;;;;;;;;;;;;;;;2.81;85.76;100038.44;5011407;28;20016;-83
2022/03/16 17:49:20;;;;;;;;;;;;;;;2.80;85.79;100039.31;5007103;28;20437;-84
2022/03/16 17:51:46;;;;;;;;;;;;;;;2.82;85.77;100034.94;4991899;28;19925;-84
2022/03/16 17:54:11;;;;;;;;;;;;;;;2.84;86.17;100047.16;4993074;28;19935;-84
2022/03/16 17:56:45;;;;;;;;;;;;;;;2.85;86.10;100041.00;4992977;28;19922;-83
2022/03/16 17:59:15;;;;;;;;;;;;;;;2.85;86.08;100042.78;4990096;28;19921;-84
2022/03/16 18:01:40;;;;;;;;;;;;;;;2.83;85.71;100044.53;4990382;28;19922;-83
2022/03/16 18:04:06;;;;;;;;;;;;;;;2.84;85.74;100043.63;4993144;28;19971;-84
2022/03/16 18:06:32;;;;;;;;;;;;;;;2.84;85.76;100047.16;4987592;28;20357;-83
2022/03/16 18:08:57;;;;;;;;;;;;;;;2.86;85.70;100041.91;4987832;28;19932;-84
2022/03/16 18:14:06;;;;;;;;;;;;;;;2.80;85.42;100045.41;5011643;28;19928;-82
2022/03/16 18:16:31;;;;;;;;;;;;;;;2.87;85.47;100048.84;4991555;28;20288;-84
2022/03/16 18:19:00;;;;;;;;;;;;;;;2.87;85.28;100048.84;5011328;28;19929;-84
2022/03/16 18:21:25;;;;;;;;;;;;;;;2.86;85.11;100049.75;4993342;28;20280;-84
2022/03/16 18:23:52;;;;;;;;;;;;;;;2.89;85.19;100044.50;5005770;28;19921;-84
2022/03/16 18:26:18;;;;;;;;;;;;;;;2.88;85.21;100043.59;4993378;28;19930;-83
2022/03/16 18:28:43;;;;;;;;;;;;;;;2.92;85.00;100044.47;4991849;28;19929;-83
2022/03/16 18:31:09;;;;;;;;;;;;;;;2.89;84.81;100039.25;5008504;28;20360;-84
2022/03/16 18:33:34;;;;;;;;;;;;;;;2.86;84.78;100044.53;4994446;28;19918;-83
2022/03/16 18:36:00;;;;;;;;;;;;;;;2.90;84.95;100057.56;5011078;28;20015;-85
2022/03/16 18:38:25;;;;;;;;;;;;;;;2.91;84.52;100047.97;4992888;28;20060;-83
2022/03/16 18:40:51;;;;;;;;;;;;;;;2.91;84.13;100042.72;4990304;28;20377;-83
2022/03/16 18:43:17;;;;;;;;;;;;;;;2.90;83.70;100052.34;4993838;28;20016;-83
2022/03/16 18:45:45;;;;;;;;;;;;;;;2.87;83.33;100047.13;4992685;28;20353;-84
2022/03/16 18:48:14;;;;;;;;;;;;;;;2.92;83.03;100049.72;4993616;28;19917;-83
2022/03/16 18:50:48;;;;;;;;;;;;;;;2.93;82.93;100059.28;4993773;28;20364;-83
2022/03/16 18:53:16;;;;;;;;;;;;;;;2.91;83.13;100047.97;5006816;28;19926;-84
2022/03/16 18:55:43;;;;;;;;;;;;;;;2.94;82.82;100057.56;4992925;28;20403;-84
2022/03/16 18:58:09;;;;;;;;;;;;;;;2.95;82.94;100054.03;5011773;28;19925;-85
2022/03/16 19:00:37;;;;;;;;;;;;;;;2.96;82.89;100051.41;5007432;28;19925;-83
2022/03/16 19:03:03;;;;;;;;;;;;;;;2.98;82.80;100054.03;4991909;28;19964;-84
2022/03/16 19:05:30;;;;;;;;;;;;;;;2.95;82.85;100057.50;4993343;28;19983;-84
2022/03/16 19:07:55;;;;;;;;;;;;;;;2.98;82.51;100059.25;4988711;28;19925;-85
2022/03/16 19:10:21;;;;;;;;;;;;;;;2.93;82.24;100054.06;4990926;28;19968;-84
2022/03/16 19:15:31;;;;;;;;;;;;;;;2.97;82.42;100049.66;5011240;28;19971;-84
2022/03/16 19:17:56;;;;;;;;;;;;;;;2.97;82.36;100054.88;4992740;28;19922;-84
2022/03/16 19:20:23;;;;;;;;;;;;;;;2.99;82.19;100053.16;5011063;28;19975;-83
2022/03/16 19:22:49;;;;;;;;;;;;;;;2.98;82.08;100052.25;4989551;28;19921;-83
2022/03/16 19:25:16;;;;;;;;;;;;;;;2.96;82.03;100055.78;4993290;28;20254;-84
2022/03/16 19:27:42;;;;;;;;;;;;;;;2.96;81.78;100056.66;4996024;28;20373;-84
2022/03/16 19:30:08;;;;;;;;;;;;;;;2.97;81.64;100053.16;5013467;28;19921;-83
2022/03/16 19:32:36;;;;;;;;;;;;;;;3.02;81.55;100050.50;4996285;28;20354;-82
2022/03/16 19:35:02;;;;;;;;;;;;;;;3.01;81.30;100054.00;4991649;28;20016;-84
2022/03/16 19:37:28;;;;;;;;;;;;;;;3.02;81.15;100055.75;4993359;28;19929;-85
2022/03/16 19:39:54;;;;;;;;;;;;;;;3.00;81.31;100055.75;4995536;28;19934;-84
2022/03/16 19:42:19;;;;;;;;;;;;;;;3.01;81.20;100051.38;5012749;28;19922;-85
2022/03/16 19:44:46;;;;;;;;;;;;;;;3.00;81.14;100047.91;4996034;28;19926;-83
2022/03/16 19:47:12;;;;;;;;;;;;;;;3.04;80.79;100044.34;5014391;28;19936;-83
2022/03/16 19:49:37;;;;;;;;;;;;;;;3.02;80.60;100050.50;5013944;28;19921;-86
2022/03/16 19:52:03;;;;;;;;;;;;;;;3.02;80.55;100061.84;4995657;28;19972;-83
2022/03/16 19:54:32;;;;;;;;;;;;;;;3.05;80.35;100056.59;5012835;28;20020;-84
2022/03/16 19:56:57;;;;;;;;;;;;;;;3.05;80.13;100060.97;5014122;28;20376;-84
2022/03/16 19:59:24;;;;;;;;;;;;;;;3.03;79.69;100063.59;5012783;28;19999;-80
2022/03/16 20:01:50;;;;;;;;;;;;;;;4.30;87.72;100055.28;5012351;28;19929;-84
2022/03/16 20:04:20;;;;;;;;;;;;;;;3.64;87.17;100054.31;5014490;28;20539;-83
2022/03/16 20:06:48;;;;;;;;;;;;;;;3.45;85.91;100045.75;5009475;28;19932;-83
2022/03/16 20:09:13;;;;;;;;;;;;;;;3.41;84.92;100045.78;5009484;28;20872;-84
2022/03/16 20:11:39;;;;;;;;;;;;;;;3.37;83.94;100052.81;5014264;28;19958;-83
2022/03/16 20:14:05;;;;;;;;;;;;;;;3.34;83.12;100058.09;5013657;28;20435;-84
2022/03/16 20:16:33;;;;;;;;;;;;;;;3.32;82.48;100052.00;4996060;28;19925;-86
2022/03/16 20:18:58;;;;;;;;;;;;;;;3.35;82.20;100044.13;4996077;28;20289;-86
2022/03/16 20:21:23;;;;;;;;;;;;;;;3.32;81.62;100049.38;5013476;28;19929;-84
2022/03/16 20:23:49;;;;;;;;;;;;;;;3.35;81.32;100053.69;4992260;28;19921;-84
2022/03/16 20:26:15;;;;;;;;;;;;;;;3.33;81.08;100056.34;4994379;28;19980;-84
2022/03/16 20:28:41;;;;;;;;;;;;;;;3.32;80.64;100059.84;4994749;28;20044;-86
2022/03/16 20:31:06;;;;;;;;;;;;;;;3.31;80.37;100058.09;4994286;28;20441;-85
2022/03/16 20:33:32;;;;;;;;;;;;;;;3.32;80.14;100064.22;4995610;28;19925;-84
2022/03/16 20:35:58;;;;;;;;;;;;;;;3.32;79.92;100054.63;4993929;28;19951;-83
2022/03/16 20:38:23;;;;;;;;;;;;;;;3.31;79.68;100052.00;4993057;28;20365;-84
2022/03/16 20:40:49;;;;;;;;;;;;;;;3.35;79.44;100054.59;4984932;28;19975;-86
2022/03/16 20:43:14;;;;;;;;;;;;;;;3.33;79.41;100051.09;4986721;28;19968;-85
2022/03/16 20:45:40;;;;;;;;;;;;;;;3.33;79.30;100048.47;4981833;28;19965;-87
2022/03/16 20:48:09;;;;;;;;;;;;;;;3.39;79.40;100047.56;5000635;28;20088;-86
2022/03/16 20:50:34;;;;;;;;;;;;;;;3.39;79.21;100056.28;4984241;28;19918;-83
2022/03/16 20:53:00;;;;;;;;;;;;;;;3.39;79.14;100044.94;4992611;28;19953;-84
2022/03/16 20:55:25;;;;;;;;;;;;;;;3.42;78.99;100047.53;4983611;28;19925;-84
2022/03/16 20:57:51;;;;;;;;;;;;;;;3.39;78.73;100043.19;5000562;28;20384;-85
2022/03/16 21:03:00;;;;;;;;;;;;;;;3.47;78.62;100042.25;5003755;28;20287;-86